Granville, Illinois
Current Conditions -  °F | °C
As of 6:35 PM on Monday 24 Nov 2014 (Local Time) from KVYS Reporting Station
Light Snow Light Snow  
Wind Chill: 14°   Ceiling: 1600
Heat Index: 28°   Visibility: 7mi
Dew Point: 24°   Wind: 25mph
Humidity: 85%   Direction: 260°W
Pressure: 29.75"   Gusts: 35mph
Location:  41.26°N, 89.23°W
Report Text: KVYS 250035Z AUTO 26022G30KT 7SM -SN OVC016 M02/M04 A2975 RMK AO2 T10201042
Loading
Personal Weather Stations






























Interactive Weather Map New forecast layout! Learn more

10-Day Weather Forecast

Advertisements
Track Severe Weather on mobile